sensor_id;sensor_type;location;lat;lon;timestamp;temperature;humidity
12847;DHT22;6492;48.128;8.320;2022-08-05T00:00:10;21.40;1.00
12847;DHT22;6492;48.128;8.320;2022-08-05T00:04:12;21.60;1.00
12847;DHT22;6492;48.128;8.320;2022-08-05T00:08:14;21.90;1.00
12847;DHT22;6492;48.128;8.320;2022-08-05T00:12:16;22.00;1.00
12847;DHT22;6492;48.128;8.320;2022-08-05T00:16:19;22.20;1.00
12847;DHT22;6492;48.128;8.320;2022-08-05T00:20:21;22.30;1.00
12847;DHT22;6492;48.128;8.320;2022-08-05T00:24:24;22.50;1.00
12847;DHT22;6492;48.128;8.320;2022-08-05T00:28:28;22.60;1.00
12847;DHT22;6492;48.128;8.320;2022-08-05T00:32:31;22.50;1.00
12847;DHT22;6492;48.128;8.320;2022-08-05T00:36:32;22.50;1.00
12847;DHT22;6492;48.128;8.320;2022-08-05T00:40:45;22.30;1.00
12847;DHT22;6492;48.128;8.320;2022-08-05T00:44:47;22.10;1.00
12847;DHT22;6492;48.128;8.320;2022-08-05T00:48:51;21.90;1.00
12847;DHT22;6492;48.128;8.320;2022-08-05T00:52:53;21.70;1.00
12847;DHT22;6492;48.128;8.320;2022-08-05T00:56:55;21.50;1.00
12847;DHT22;6492;48.128;8.320;2022-08-05T01:00:57;21.30;1.30
12847;DHT22;6492;48.128;8.320;2022-08-05T01:05:01;21.20;1.70
12847;DHT22;6492;48.128;8.320;2022-08-05T01:09:03;21.00;2.20
12847;DHT22;6492;48.128;8.320;2022-08-05T01:13:12;20.80;3.00
12847;DHT22;6492;48.128;8.320;2022-08-05T01:17:19;20.70;3.30
12847;DHT22;6492;48.128;8.320;2022-08-05T05:14:44;20.80;9.00
12847;DHT22;6492;48.128;8.320;2022-08-05T05:18:46;20.80;9.00
12847;DHT22;6492;48.128;8.320;2022-08-05T05:22:48;20.90;8.60
12847;DHT22;6492;48.128;8.320;2022-08-05T05:26:50;21.00;8.60
12847;DHT22;6492;48.128;8.320;2022-08-05T05:30:53;21.00;8.80
12847;DHT22;6492;48.128;8.320;2022-08-05T05:34:55;21.00;8.70
12847;DHT22;6492;48.128;8.320;2022-08-05T05:38:57;21.10;8.90
12847;DHT22;6492;48.128;8.320;2022-08-05T06:20:53;20.90;13.40
12847;DHT22;6492;48.128;8.320;2022-08-05T06:24:56;21.10;12.80
12847;DHT22;6492;48.128;8.320;2022-08-05T06:28:58;21.40;11.70
12847;DHT22;6492;48.128;8.320;2022-08-05T06:33:08;21.80;11.00
12847;DHT22;6492;48.128;8.320;2022-08-05T06:37:10;22.20;9.90
12847;DHT22;6492;48.128;8.320;2022-08-05T06:41:13;22.50;9.20
12847;DHT22;6492;48.128;8.320;2022-08-05T06:45:15;22.60;8.80
12847;DHT22;6492;48.128;8.320;2022-08-05T06:49:28;22.70;8.50
12847;DHT22;6492;48.128;8.320;2022-08-05T06:53:53;23.10;7.80
12847;DHT22;6492;48.128;8.320;2022-08-05T06:57:56;23.50;6.70
12847;DHT22;6492;48.128;8.320;2022-08-05T07:01:58;23.70;5.70
12847;DHT22;6492;48.128;8.320;2022-08-05T07:06:00;23.80;5.00
12847;DHT22;6492;48.128;8.320;2022-08-05T07:10:04;23.70;5.20
12847;DHT22;6492;48.128;8.320;2022-08-05T07:14:07;23.70;5.20
12847;DHT22;6492;48.128;8.320;2022-08-05T07:18:26;24.40;4.30
12847;DHT22;6492;48.128;8.320;2022-08-05T07:22:36;25.30;2.30
12847;DHT22;6492;48.128;8.320;2022-08-05T07:26:45;26.60;1.00
12847;DHT22;6492;48.128;8.320;2022-08-05T07:30:48;27.60;1.00
12847;DHT22;6492;48.128;8.320;2022-08-05T07:35:00;28.80;1.00
12847;DHT22;6492;48.128;8.320;2022-08-05T07:39:03;28.80;1.00
12847;DHT22;6492;48.128;8.320;2022-08-05T07:43:05;28.10;1.00
12847;DHT22;6492;48.128;8.320;2022-08-05T07:47:44;27.60;1.00
12847;DHT22;6492;48.128;8.320;2022-08-05T07:51:46;26.80;1.00
12847;DHT22;6492;48.128;8.320;2022-08-05T07:55:48;26.00;1.00
12847;DHT22;6492;48.128;8.320;2022-08-05T07:59:50;25.20;1.00
12847;DHT22;6492;48.128;8.320;2022-08-05T08:03:57;24.50;2.30
12847;DHT22;6492;48.128;8.320;2022-08-05T08:08:01;24.20;3.70
12847;DHT22;6492;48.128;8.320;2022-08-05T08:12:08;24.10;4.20
12847;DHT22;6492;48.128;8.320;2022-08-05T08:16:10;24.40;3.70
12847;DHT22;6492;48.128;8.320;2022-08-05T08:20:13;24.90;2.80
12847;DHT22;6492;48.128;8.320;2022-08-05T08:24:15;25.30;1.40
12847;DHT22;6492;48.128;8.320;2022-08-05T08:28:17;25.40;1.00
12847;DHT22;6492;48.128;8.320;2022-08-05T08:32:26;25.20;1.00
12847;DHT22;6492;48.128;8.320;2022-08-05T08:36:40;25.40;1.00
12847;DHT22;6492;48.128;8.320;2022-08-05T08:40:42;26.20;1.00
12847;DHT22;6492;48.128;8.320;2022-08-05T08:44:45;27.40;1.00
12847;DHT22;6492;48.128;8.320;2022-08-05T08:48:48;28.00;1.00
12847;DHT22;6492;48.128;8.320;2022-08-05T08:53:00;28.40;1.00
12847;DHT22;6492;48.128;8.320;2022-08-05T08:57:04;29.10;1.00
12847;DHT22;6492;48.128;8.320;2022-08-05T09:01:08;29.60;1.00
12847;DHT22;6492;48.128;8.320;2022-08-05T09:05:11;30.00;1.00
12847;DHT22;6492;48.128;8.320;2022-08-05T09:09:17;30.20;1.00
12847;DHT22;6492;48.128;8.320;2022-08-05T09:13:20;30.10;1.00
12847;DHT22;6492;48.128;8.320;2022-08-05T09:17:22;30.40;1.00
12847;DHT22;6492;48.128;8.320;2022-08-05T09:21:24;30.40;1.00
12847;DHT22;6492;48.128;8.320;2022-08-05T09:25:29;30.40;1.00
12847;DHT22;6492;48.128;8.320;2022-08-05T09:29:39;30.20;1.00
12847;DHT22;6492;48.128;8.320;2022-08-05T09:33:49;30.30;1.00
12847;DHT22;6492;48.128;8.320;2022-08-05T09:37:53;30.60;1.00
12847;DHT22;6492;48.128;8.320;2022-08-05T09:42:01;31.10;1.00
12847;DHT22;6492;48.128;8.320;2022-08-05T09:46:05;31.80;1.00
12847;DHT22;6492;48.128;8.320;2022-08-05T09:50:11;32.30;1.00
12847;DHT22;6492;48.128;8.320;2022-08-05T09:54:28;32.80;1.00
12847;DHT22;6492;48.128;8.320;2022-08-05T09:58:32;32.90;1.00
12847;DHT22;6492;48.128;8.320;2022-08-05T10:02:48;32.80;1.00
12847;DHT22;6492;48.128;8.320;2022-08-05T10:06:54;32.60;1.00
12847;DHT22;6492;48.128;8.320;2022-08-05T10:10:57;31.50;1.00
12847;DHT22;6492;48.128;8.320;2022-08-05T10:15:21;30.80;1.00
12847;DHT22;6492;48.128;8.320;2022-08-05T10:19:24;30.90;1.00
12847;DHT22;6492;48.128;8.320;2022-08-05T10:23:28;31.40;1.00
12847;DHT22;6492;48.128;8.320;2022-08-05T10:27:30;32.00;1.00
12847;DHT22;6492;48.128;8.320;2022-08-05T10:31:34;32.30;1.00
12847;DHT22;6492;48.128;8.320;2022-08-05T10:35:54;32.40;1.00
12847;DHT22;6492;48.128;8.320;2022-08-05T10:39:57;32.80;1.00
12847;DHT22;6492;48.128;8.320;2022-08-05T10:44:06;33.20;1.00
12847;DHT22;6492;48.128;8.320;2022-08-05T10:48:39;33.40;1.00
12847;DHT22;6492;48.128;8.320;2022-08-05T10:52:43;33.30;1.00
12847;DHT22;6492;48.128;8.320;2022-08-05T10:56:49;33.40;1.00
12847;DHT22;6492;48.128;8.320;2022-08-05T11:00:54;33.40;1.00
12847;DHT22;6492;48.128;8.320;2022-08-05T11:04:57;33.30;1.00
12847;DHT22;6492;48.128;8.320;2022-08-05T11:09:27;33.70;1.00
12847;DHT22;6492;48.128;8.320;2022-08-05T11:13:40;33.80;1.00
12847;DHT22;6492;48.128;8.320;2022-08-05T11:17:52;33.80;1.00
12847;DHT22;6492;48.128;8.320;2022-08-05T11:26:36;34.20;1.00
12847;DHT22;6492;48.128;8.320;2022-08-05T11:39:50;35.50;1.00
12847;DHT22;6492;48.128;8.320;2022-08-05T11:43:54;36.10;1.00
12847;DHT22;6492;48.128;8.320;2022-08-05T11:47:56;36.30;1.00
12847;DHT22;6492;48.128;8.320;2022-08-05T11:51:58;36.00;1.00
12847;DHT22;6492;48.128;8.320;2022-08-05T11:56:02;35.70;1.00
12847;DHT22;6492;48.128;8.320;2022-08-05T12:00:24;35.40;1.00
12847;DHT22;6492;48.128;8.320;2022-08-05T12:04:28;35.50;1.00
12847;DHT22;6492;48.128;8.320;2022-08-05T12:08:30;36.30;1.00
12847;DHT22;6492;48.128;8.320;2022-08-05T12:12:33;36.60;1.00
12847;DHT22;6492;48.128;8.320;2022-08-05T12:16:36;35.90;1.00
12847;DHT22;6492;48.128;8.320;2022-08-05T12:20:38;35.60;1.00
12847;DHT22;6492;48.128;8.320;2022-08-05T12:24:41;35.70;1.00
12847;DHT22;6492;48.128;8.320;2022-08-05T12:28:47;35.50;1.00
12847;DHT22;6492;48.128;8.320;2022-08-05T12:32:48;34.80;1.00
12847;DHT22;6492;48.128;8.320;2022-08-05T12:36:54;33.90;1.00
12847;DHT22;6492;48.128;8.320;2022-08-05T12:41:29;33.60;1.00
12847;DHT22;6492;48.128;8.320;2022-08-05T12:45:32;33.50;1.00
12847;DHT22;6492;48.128;8.320;2022-08-05T12:49:41;33.60;1.00
12847;DHT22;6492;48.128;8.320;2022-08-05T12:53:44;33.50;1.00
12847;DHT22;6492;48.128;8.320;2022-08-05T12:57:46;33.40;1.00
12847;DHT22;6492;48.128;8.320;2022-08-05T13:02:06;33.00;1.00
12847;DHT22;6492;48.128;8.320;2022-08-05T13:06:12;32.60;1.00
12847;DHT22;6492;48.128;8.320;2022-08-05T13:10:45;32.10;1.00
12847;DHT22;6492;48.128;8.320;2022-08-05T13:14:49;32.20;1.00
12847;DHT22;6492;48.128;8.320;2022-08-05T13:18:53;33.20;1.00
12847;DHT22;6492;48.128;8.320;2022-08-05T13:22:56;33.80;1.00
12847;DHT22;6492;48.128;8.320;2022-08-05T13:26:58;34.70;1.00
12847;DHT22;6492;48.128;8.320;2022-08-05T13:30:59;35.50;1.00
12847;DHT22;6492;48.128;8.320;2022-08-05T13:35:03;36.30;1.00
12847;DHT22;6492;48.128;8.320;2022-08-05T13:39:06;35.90;1.00
12847;DHT22;6492;48.128;8.320;2022-08-05T13:43:19;35.70;1.00
12847;DHT22;6492;48.128;8.320;2022-08-05T13:47:21;35.70;1.00
12847;DHT22;6492;48.128;8.320;2022-08-05T13:51:31;35.50;1.00
12847;DHT22;6492;48.128;8.320;2022-08-05T13:55:35;35.20;1.00
12847;DHT22;6492;48.128;8.320;2022-08-05T13:59:38;35.00;1.00
12847;DHT22;6492;48.128;8.320;2022-08-05T14:03:40;35.00;1.00
12847;DHT22;6492;48.128;8.320;2022-08-05T14:07:43;34.50;1.00
12847;DHT22;6492;48.128;8.320;2022-08-05T14:11:45;34.50;1.00
12847;DHT22;6492;48.128;8.320;2022-08-05T14:15:47;34.50;1.00
12847;DHT22;6492;48.128;8.320;2022-08-05T14:19:49;34.40;1.00
12847;DHT22;6492;48.128;8.320;2022-08-05T14:23:52;34.30;1.00
12847;DHT22;6492;48.128;8.320;2022-08-05T14:27:54;34.10;1.00
12847;DHT22;6492;48.128;8.320;2022-08-05T14:32:06;33.80;1.00
12847;DHT22;6492;48.128;8.320;2022-08-05T14:36:08;33.70;1.00
12847;DHT22;6492;48.128;8.320;2022-08-05T14:40:12;33.60;1.00
12847;DHT22;6492;48.128;8.320;2022-08-05T14:44:15;33.50;1.00
12847;DHT22;6492;48.128;8.320;2022-08-05T14:48:19;33.60;1.00
12847;DHT22;6492;48.128;8.320;2022-08-05T14:52:21;33.20;1.00
12847;DHT22;6492;48.128;8.320;2022-08-05T14:56:24;32.30;1.00
12847;DHT22;6492;48.128;8.320;2022-08-05T15:00:29;31.70;1.00
12847;DHT22;6492;48.128;8.320;2022-08-05T15:04:31;31.60;1.00
12847;DHT22;6492;48.128;8.320;2022-08-05T15:08:39;31.70;1.00
12847;DHT22;6492;48.128;8.320;2022-08-05T15:12:42;31.90;1.00
12847;DHT22;6492;48.128;8.320;2022-08-05T15:17:07;32.50;1.00
12847;DHT22;6492;48.128;8.320;2022-08-05T15:21:10;33.10;1.00
12847;DHT22;6492;48.128;8.320;2022-08-05T15:29:41;32.80;1.00
12847;DHT22;6492;48.128;8.320;2022-08-05T15:33:43;32.80;1.00
12847;DHT22;6492;48.128;8.320;2022-08-05T15:37:45;32.70;1.00
12847;DHT22;6492;48.128;8.320;2022-08-05T15:41:47;32.40;1.00
12847;DHT22;6492;48.128;8.320;2022-08-05T15:45:51;32.40;1.00
12847;DHT22;6492;48.128;8.320;2022-08-05T15:49:53;32.20;1.00
12847;DHT22;6492;48.128;8.320;2022-08-05T15:53:58;32.00;1.00
12847;DHT22;6492;48.128;8.320;2022-08-05T15:57:59;31.60;1.00
12847;DHT22;6492;48.128;8.320;2022-08-05T16:02:10;31.00;1.00
12847;DHT22;6492;48.128;8.320;2022-08-05T16:06:11;30.30;1.00
12847;DHT22;6492;48.128;8.320;2022-08-05T16:10:15;29.70;1.00
12847;DHT22;6492;48.128;8.320;2022-08-05T16:14:21;29.10;1.00
12847;DHT22;6492;48.128;8.320;2022-08-05T16:18:24;28.50;1.00
12847;DHT22;6492;48.128;8.320;2022-08-05T16:22:45;28.30;1.00
12847;DHT22;6492;48.128;8.320;2022-08-05T16:26:51;28.10;1.00
12847;DHT22;6492;48.128;8.320;2022-08-05T16:30:54;28.00;1.00
12847;DHT22;6492;48.128;8.320;2022-08-05T16:34:57;27.90;1.00
12847;DHT22;6492;48.128;8.320;2022-08-05T16:39:01;27.70;1.00
12847;DHT22;6492;48.128;8.320;2022-08-05T16:43:04;27.50;1.00
12847;DHT22;6492;48.128;8.320;2022-08-05T16:47:06;27.40;1.00
12847;DHT22;6492;48.128;8.320;2022-08-05T16:51:09;27.40;1.10
12847;DHT22;6492;48.128;8.320;2022-08-05T16:55:15;27.30;1.20
12847;DHT22;6492;48.128;8.320;2022-08-05T16:59:17;27.00;2.00
12847;DHT22;6492;48.128;8.320;2022-08-05T17:03:19;26.50;2.90
12847;DHT22;6492;48.128;8.320;2022-08-05T17:07:22;26.00;4.10
12847;DHT22;6492;48.128;8.320;2022-08-05T17:11:46;25.40;5.90
12847;DHT22;6492;48.128;8.320;2022-08-05T17:15:47;24.90;6.80
12847;DHT22;6492;48.128;8.320;2022-08-05T17:19:49;24.60;7.80
12847;DHT22;6492;48.128;8.320;2022-08-05T17:23:53;24.10;8.50
12847;DHT22;6492;48.128;8.320;2022-08-05T17:27:54;23.90;9.40
12847;DHT22;6492;48.128;8.320;2022-08-05T17:31:56;23.60;10.00
12847;DHT22;6492;48.128;8.320;2022-08-05T17:36:04;23.40;10.70
12847;DHT22;6492;48.128;8.320;2022-08-05T17:40:12;23.20;11.60
12847;DHT22;6492;48.128;8.320;2022-08-05T17:44:14;23.10;12.00
12847;DHT22;6492;48.128;8.320;2022-08-05T17:48:23;22.90;12.20
12847;DHT22;6492;48.128;8.320;2022-08-05T17:52:25;22.80;12.90
12847;DHT22;6492;48.128;8.320;2022-08-05T17:56:29;22.70;13.10
12847;DHT22;6492;48.128;8.320;2022-08-05T18:00:31;22.50;13.30
12847;DHT22;6492;48.128;8.320;2022-08-05T18:04:34;22.40;13.70
12847;DHT22;6492;48.128;8.320;2022-08-05T18:08:35;22.30;14.20
12847;DHT22;6492;48.128;8.320;2022-08-05T18:12:39;22.10;14.20
12847;DHT22;6492;48.128;8.320;2022-08-05T18:16:40;22.00;14.80
12847;DHT22;6492;48.128;8.320;2022-08-05T18:21:00;21.80;15.10
12847;DHT22;6492;48.128;8.320;2022-08-05T18:25:03;21.70;15.60
12847;DHT22;6492;48.128;8.320;2022-08-05T18:34:09;21.40;16.90
12847;DHT22;6492;48.128;8.320;2022-08-05T18:53:06;20.90;18.40
12847;DHT22;6492;48.128;8.320;2022-08-05T18:57:08;20.80;18.00
12847;DHT22;6492;48.128;8.320;2022-08-05T19:01:12;20.80;18.00
12847;DHT22;6492;48.128;8.320;2022-08-05T19:24:23;20.70;18.50
12847;DHT22;6492;48.128;8.320;2022-08-05T19:28:33;20.70;18.80
